createdAt,value
2023-04-08T00:01:40.966Z,1.68
2023-04-08T00:04:07.592Z,1.68
2023-04-08T00:06:34.129Z,1.56
2023-04-08T00:09:00.544Z,1.56
2023-04-08T00:11:26.862Z,1.57
2023-04-08T00:13:53.188Z,1.54
2023-04-08T00:16:19.564Z,1.47
2023-04-08T00:18:45.835Z,1.49
2023-04-08T00:21:12.160Z,1.46
2023-04-08T00:23:38.488Z,1.44
2023-04-08T00:26:04.834Z,1.35
2023-04-08T00:28:31.158Z,1.31
2023-04-08T00:30:57.556Z,1.21
2023-04-08T00:33:23.874Z,1.24
2023-04-08T00:35:50.288Z,1.12
2023-04-08T00:38:16.548Z,1.15
2023-04-08T00:40:42.957Z,1.03
2023-04-08T00:43:09.355Z,1.06
2023-04-08T00:45:35.764Z,1.02
2023-04-08T00:48:02.518Z,1.04
2023-04-08T00:50:29.043Z,0.97
2023-04-08T00:52:55.306Z,0.94
2023-04-08T00:55:21.665Z,0.81
2023-04-08T00:57:48.634Z,0.84
2023-04-08T01:00:15.903Z,0.80
2023-04-08T01:03:13.623Z,0.77
2023-04-08T01:05:59.949Z,0.70
2023-04-08T01:08:29.408Z,0.69
2023-04-08T01:11:00.873Z,0.65
2023-04-08T01:13:31.284Z,0.60
2023-04-08T01:15:59.251Z,0.62
2023-04-08T01:18:31.050Z,0.68
2023-04-08T01:20:59.074Z,0.60
2023-04-08T01:23:38.969Z,0.66
2023-04-08T01:26:05.331Z,0.59
2023-04-08T01:28:33.690Z,0.69
2023-04-08T01:31:02.066Z,0.70
2023-04-08T01:33:29.341Z,0.67
2023-04-08T01:35:57.611Z,0.64
2023-04-08T01:38:25.610Z,0.69
2023-04-08T01:40:54.477Z,0.71
2023-04-08T01:43:21.284Z,0.63
2023-04-08T01:45:49.352Z,0.56
2023-04-08T01:48:15.912Z,0.66
2023-04-08T01:50:43.851Z,0.67
2023-04-08T01:53:11.765Z,0.66
2023-04-08T01:55:43.157Z,0.67
2023-04-08T01:58:17.090Z,0.67
2023-04-08T02:00:44.267Z,0.59
2023-04-08T02:03:12.778Z,0.62
2023-04-08T02:05:40.093Z,0.61
2023-04-08T02:08:06.593Z,0.61
2023-04-08T02:10:33.092Z,0.62
2023-04-08T02:12:59.669Z,0.52
2023-04-08T02:15:27.636Z,0.59
2023-04-08T02:17:56.356Z,0.54
2023-04-08T02:20:28.598Z,0.55
2023-04-08T02:23:03.852Z,0.52
2023-04-08T02:25:31.865Z,0.43
2023-04-08T02:28:01.883Z,0.43
2023-04-08T02:30:29.698Z,0.45
2023-04-08T02:32:58.077Z,0.39
2023-04-08T02:35:24.795Z,0.31
2023-04-08T02:37:51.310Z,0.37
2023-04-08T02:40:30.543Z,0.35
2023-04-08T02:42:57.516Z,0.24
2023-04-08T02:45:29.944Z,0.26
2023-04-08T02:47:56.254Z,0.32
2023-04-08T02:50:22.676Z,0.29
2023-04-08T02:52:48.989Z,0.21
2023-04-08T02:55:15.358Z,0.26
2023-04-08T02:57:42.433Z,0.27
2023-04-08T03:00:09.684Z,0.27
2023-04-08T03:02:36.285Z,0.21
2023-04-08T03:05:02.880Z,0.15
2023-04-08T03:07:29.277Z,0.14
2023-04-08T03:09:55.752Z,0.24
2023-04-08T03:12:22.364Z,0.24
2023-04-08T03:14:49.716Z,0.24
2023-04-08T03:17:16.962Z,0.16
2023-04-08T03:19:43.318Z,0.15
2023-04-08T03:22:09.717Z,0.11
2023-04-08T03:24:36.308Z,0.15
2023-04-08T03:27:03.434Z,0.05
2023-04-08T03:29:29.843Z,0.03
2023-04-08T03:31:56.478Z,0.07
2023-04-08T03:34:22.871Z,0.06
2023-04-08T03:36:49.224Z,-0.11
2023-04-08T03:39:15.618Z,-0.15
2023-04-08T03:41:41.976Z,-0.07
2023-04-08T03:44:08.369Z,-0.12
2023-04-08T03:46:34.753Z,-0.10
2023-04-08T03:49:01.198Z,-0.06
2023-04-08T03:51:27.500Z,-0.07
2023-04-08T03:53:53.885Z,-0.15
2023-04-08T03:56:20.300Z,-0.15
2023-04-08T03:58:46.646Z,-0.15
2023-04-08T04:01:13.023Z,-0.17
2023-04-08T04:03:39.478Z,-0.31
2023-04-08T04:06:05.980Z,-0.27
2023-04-08T04:08:32.313Z,-0.25
2023-04-08T04:10:59.502Z,-0.29
2023-04-08T04:13:25.849Z,-0.26
2023-04-08T04:15:52.337Z,-0.26
2023-04-08T04:18:18.634Z,-0.19
2023-04-08T04:20:45.055Z,-0.18
2023-04-08T04:23:11.366Z,-0.25
2023-04-08T04:25:41.309Z,-0.25
2023-04-08T04:28:07.698Z,-0.33
2023-04-08T04:30:36.968Z,-0.25
2023-04-08T04:33:03.502Z,-0.24
2023-04-08T04:35:30.021Z,-0.22
2023-04-08T04:37:56.324Z,-0.22
2023-04-08T04:40:22.731Z,-0.33
2023-04-08T04:42:49.624Z,-0.30
2023-04-08T04:45:16.081Z,-0.28
2023-04-08T04:47:42.476Z,-0.31
2023-04-08T04:50:09.230Z,-0.26
2023-04-08T04:52:36.501Z,-0.34
2023-04-08T04:55:02.882Z,-0.30
2023-04-08T04:57:29.250Z,-0.34
2023-04-08T04:59:55.571Z,-0.24
2023-04-08T05:02:22.076Z,-0.31
2023-04-08T05:04:48.545Z,-0.29
2023-04-08T05:07:14.812Z,-0.25
2023-04-08T05:09:41.123Z,-0.29
2023-04-08T05:12:07.489Z,-0.38
2023-04-08T05:14:33.873Z,-0.35
2023-04-08T05:17:00.237Z,-0.36
2023-04-08T05:19:26.610Z,-0.27
2023-04-08T05:21:52.962Z,-0.31
2023-04-08T05:24:19.324Z,-0.23
2023-04-08T05:26:45.657Z,-0.28
2023-04-08T05:29:11.965Z,-0.36
2023-04-08T05:31:38.346Z,-0.33
2023-04-08T05:34:04.681Z,-0.33
2023-04-08T05:36:31.075Z,-0.28
2023-04-08T05:38:57.402Z,-0.13
2023-04-08T05:41:23.713Z,-0.14
2023-04-08T05:43:50.087Z,-0.05
2023-04-08T05:46:16.446Z,-0.04
2023-04-08T05:48:42.853Z,0.03
2023-04-08T05:51:14.104Z,0.06
2023-04-08T05:53:41.550Z,0.08
2023-04-08T05:56:08.101Z,0.27
2023-04-08T05:58:34.585Z,0.54
2023-04-08T06:01:00.946Z,0.76
2023-04-08T06:03:27.458Z,0.92
2023-04-08T06:05:54.055Z,1.26
2023-04-08T06:08:20.409Z,1.50
2023-04-08T06:10:50.543Z,1.47
2023-04-08T06:13:16.890Z,1.57
2023-04-08T06:15:43.290Z,1.57
2023-04-08T06:18:09.507Z,1.70
2023-04-08T06:20:36.106Z,1.66
2023-04-08T06:23:02.436Z,1.72
2023-04-08T06:25:28.737Z,1.74
2023-04-08T06:27:55.089Z,1.71
2023-04-08T06:30:21.512Z,1.82
2023-04-08T06:32:47.801Z,1.97
2023-04-08T06:35:14.464Z,1.98
2023-04-08T06:37:40.773Z,1.99
2023-04-08T06:40:07.657Z,2.09
2023-04-08T06:42:34.004Z,2.22
2023-04-08T06:45:00.304Z,2.24
2023-04-08T06:47:26.656Z,2.34
2023-04-08T06:49:53.004Z,2.29
2023-04-08T06:52:19.340Z,2.23
2023-04-08T06:54:45.810Z,2.32
2023-04-08T06:57:12.237Z,2.33
2023-04-08T06:59:38.625Z,2.47
2023-04-08T07:02:05.028Z,2.58
2023-04-08T07:04:31.423Z,2.51
2023-04-08T07:06:57.732Z,2.55
2023-04-08T07:09:24.055Z,2.64
2023-04-08T07:11:50.407Z,2.70
2023-04-08T07:14:16.695Z,2.99
2023-04-08T07:16:43.087Z,3.07
2023-04-08T07:19:09.379Z,3.49
2023-04-08T07:21:35.716Z,3.62
2023-04-08T07:24:01.992Z,4.03
2023-04-08T07:26:28.408Z,4.23
2023-04-08T07:28:54.811Z,4.62
2023-04-08T07:31:21.109Z,4.87
2023-04-08T07:33:47.446Z,5.08
2023-04-08T07:36:14.153Z,5.24
2023-04-08T07:38:40.849Z,5.43
2023-04-08T07:41:07.333Z,5.48
2023-04-08T07:43:34.086Z,5.70
2023-04-08T07:46:01.546Z,5.82
2023-04-08T07:48:28.275Z,5.87
2023-04-08T07:51:09.428Z,5.89
2023-04-08T07:53:37.305Z,5.83
2023-04-08T07:56:03.856Z,5.86
2023-04-08T07:58:30.472Z,5.84
2023-04-08T08:00:57.116Z,5.91
2023-04-08T08:03:23.560Z,5.93
2023-04-08T08:05:49.977Z,6.04
2023-04-08T08:08:16.219Z,6.28
2023-04-08T08:10:42.605Z,6.55
2023-04-08T08:13:09.016Z,7.10
2023-04-08T08:15:35.430Z,7.78
2023-04-08T08:18:01.815Z,8.49
2023-04-08T08:20:28.159Z,9.25
2023-04-08T08:22:57.750Z,10.26
2023-04-08T08:25:26.122Z,10.94
2023-04-08T08:27:52.840Z,11.56
2023-04-08T08:30:19.396Z,12.31
2023-04-08T08:32:45.826Z,13.21
2023-04-08T08:35:12.295Z,13.75
2023-04-08T08:37:38.757Z,13.27
2023-04-08T08:40:05.732Z,13.20
2023-04-08T08:42:34.288Z,13.34
2023-04-08T08:45:04.304Z,13.51
2023-04-08T08:47:31.188Z,12.95
2023-04-08T08:49:57.870Z,12.45
2023-04-08T08:52:24.482Z,11.96
2023-04-08T08:55:00.272Z,11.90
2023-04-08T08:57:26.838Z,11.89
2023-04-08T08:59:53.322Z,11.51
2023-04-08T09:02:29.888Z,11.49
2023-04-08T09:04:58.583Z,11.31
2023-04-08T09:07:26.497Z,11.43
2023-04-08T09:09:54.087Z,11.27
2023-04-08T09:12:20.707Z,11.05
2023-04-08T09:14:47.103Z,10.58
2023-04-08T09:17:13.771Z,10.47
2023-04-08T09:19:43.447Z,10.56
2023-04-08T09:22:11.676Z,10.58
2023-04-08T09:24:38.209Z,10.92
2023-04-08T09:27:05.532Z,11.24
2023-04-08T09:29:34.778Z,11.28
2023-04-08T09:32:03.186Z,11.55
2023-04-08T09:34:29.981Z,11.93
2023-04-08T09:36:56.525Z,11.91
2023-04-08T09:39:23.085Z,11.88
2023-04-08T09:41:50.750Z,11.97
2023-04-08T09:44:19.017Z,12.13
2023-04-08T09:46:51.740Z,12.43
2023-04-08T09:49:48.493Z,12.50
2023-04-08T09:52:24.319Z,12.76
2023-04-08T09:55:04.754Z,13.22
2023-04-08T09:57:40.913Z,13.05
2023-04-08T10:00:15.256Z,13.11
2023-04-08T10:03:21.758Z,13.47
2023-04-08T10:05:49.259Z,13.48
2023-04-08T10:08:16.261Z,13.51
2023-04-08T10:10:43.192Z,13.13
2023-04-08T10:13:10.109Z,13.27
2023-04-08T10:15:37.030Z,12.96
2023-04-08T10:18:03.421Z,12.97
2023-04-08T10:20:35.542Z,12.92
2023-04-08T10:23:02.372Z,13.15
2023-04-08T10:25:30.701Z,13.27
2023-04-08T10:27:57.425Z,12.92
2023-04-08T10:30:29.580Z,12.28
2023-04-08T10:32:57.490Z,11.88
2023-04-08T10:35:30.496Z,11.69
2023-04-08T10:37:59.790Z,11.75
2023-04-08T10:40:26.292Z,11.77
2023-04-08T10:42:56.946Z,11.53
2023-04-08T10:45:23.833Z,11.74
2023-04-08T10:47:50.421Z,11.98
2023-04-08T10:50:18.618Z,12.14
2023-04-08T10:52:52.326Z,12.16
2023-04-08T10:55:26.570Z,12.05
2023-04-08T10:57:58.119Z,12.30
2023-04-08T11:00:36.344Z,12.62
2023-04-08T11:03:03.787Z,12.54
2023-04-08T11:05:30.525Z,12.55
2023-04-08T11:07:58.225Z,12.08
2023-04-08T11:10:25.434Z,11.98
2023-04-08T11:12:51.763Z,11.67
2023-04-08T11:15:18.196Z,11.78
2023-04-08T11:17:44.916Z,12.16
2023-04-08T11:20:11.443Z,11.94
2023-04-08T11:22:39.306Z,11.72
2023-04-08T11:25:07.958Z,11.66
2023-04-08T11:27:34.870Z,11.46
2023-04-08T11:30:02.057Z,11.46
2023-04-08T11:32:29.209Z,11.19
2023-04-08T11:34:55.607Z,11.33
2023-04-08T11:37:25.722Z,11.13
2023-04-08T11:39:54.858Z,11.33
2023-04-08T11:42:31.412Z,11.46
2023-04-08T11:44:58.162Z,11.43
2023-04-08T11:47:34.453Z,11.47
2023-04-08T11:50:01.188Z,11.22
2023-04-08T11:52:47.247Z,11.26
2023-04-08T11:55:24.164Z,11.07
2023-04-08T11:57:51.062Z,11.00
2023-04-08T12:00:17.632Z,11.12
2023-04-08T12:02:44.091Z,11.13
2023-04-08T12:05:10.636Z,11.19
2023-04-08T12:07:37.253Z,11.14
2023-04-08T12:10:03.806Z,11.44
2023-04-08T12:12:30.130Z,11.49
2023-04-08T12:14:56.449Z,11.49
2023-04-08T12:17:22.864Z,11.20
2023-04-08T12:19:49.217Z,11.12
2023-04-08T12:22:15.553Z,11.21
2023-04-08T12:24:41.990Z,11.48
2023-04-08T12:27:08.320Z,11.74
2023-04-08T12:29:34.657Z,11.95
2023-04-08T12:32:01.144Z,12.08
2023-04-08T12:34:27.806Z,12.28
2023-04-08T12:36:54.174Z,12.37
2023-04-08T12:39:20.527Z,12.50
2023-04-08T12:41:46.885Z,12.62
2023-04-08T12:44:13.269Z,12.90
2023-04-08T12:46:39.688Z,13.03
2023-04-08T12:49:06.437Z,13.09
2023-04-08T12:51:33.269Z,13.00
2023-04-08T12:53:59.829Z,12.92
2023-04-08T12:56:26.137Z,12.62
2023-04-08T12:58:52.682Z,12.82
2023-04-08T13:01:19.235Z,12.91
2023-04-08T13:03:47.049Z,13.22
2023-04-08T13:06:13.592Z,13.44
2023-04-08T13:08:39.994Z,13.31
2023-04-08T13:11:07.519Z,13.26
2023-04-08T13:13:33.995Z,13.26
2023-04-08T13:16:00.647Z,13.11
2023-04-08T13:18:26.980Z,13.17
2023-04-08T13:20:53.520Z,12.99
2023-04-08T13:23:20.193Z,13.06
2023-04-08T13:25:46.734Z,13.16
2023-04-08T13:28:13.148Z,13.20
2023-04-08T13:30:39.557Z,13.35
2023-04-08T13:33:06.020Z,13.44
2023-04-08T13:35:32.419Z,13.42
2023-04-08T13:37:58.785Z,13.39
2023-04-08T13:40:25.232Z,13.25
2023-04-08T13:42:51.584Z,13.18
2023-04-08T13:45:17.967Z,13.20
2023-04-08T13:47:44.326Z,13.35
2023-04-08T13:50:10.835Z,13.47
2023-04-08T13:52:37.220Z,13.61
2023-04-08T13:55:03.839Z,13.72
2023-04-08T13:57:30.150Z,13.65
2023-04-08T13:59:56.458Z,13.46
2023-04-08T14:02:22.845Z,13.39
2023-04-08T14:04:49.257Z,13.37
2023-04-08T14:07:15.613Z,13.29
2023-04-08T14:09:42.025Z,13.35
2023-04-08T14:12:08.419Z,13.61
2023-04-08T14:14:34.749Z,13.90
2023-04-08T14:17:01.193Z,13.93
2023-04-08T14:19:27.606Z,13.98
2023-04-08T14:21:53.962Z,14.10
2023-04-08T14:24:20.338Z,14.27
2023-04-08T14:26:46.782Z,14.53
2023-04-08T14:29:13.132Z,14.67
2023-04-08T14:31:39.521Z,14.86
2023-04-08T14:34:05.863Z,14.92
2023-04-08T14:36:32.278Z,14.62
2023-04-08T14:38:58.843Z,14.43
2023-04-08T14:41:25.540Z,14.23
2023-04-08T14:43:52.128Z,14.27
2023-04-08T14:46:18.673Z,14.29
2023-04-08T14:48:45.047Z,14.32
2023-04-08T14:51:11.384Z,14.28
2023-04-08T14:53:37.736Z,14.27
2023-04-08T14:56:04.228Z,14.16
2023-04-08T14:58:30.550Z,14.21
2023-04-08T15:00:56.921Z,14.22
2023-04-08T15:03:23.412Z,14.27
2023-04-08T15:05:50.035Z,14.31
2023-04-08T15:08:16.439Z,14.31
2023-04-08T15:10:42.778Z,14.10
2023-04-08T15:13:09.227Z,13.56
2023-04-08T15:15:35.671Z,13.39
2023-04-08T15:18:02.142Z,13.13
2023-04-08T15:20:28.549Z,13.33
2023-04-08T15:22:54.850Z,13.19
2023-04-08T15:25:21.188Z,13.07
2023-04-08T15:27:47.799Z,13.06
2023-04-08T15:30:14.360Z,13.16
2023-04-08T15:32:40.822Z,13.18
2023-04-08T15:35:07.779Z,13.18
2023-04-08T15:37:34.120Z,13.30
2023-04-08T15:40:00.550Z,13.39
2023-04-08T15:42:26.949Z,13.52
2023-04-08T15:44:53.284Z,13.51
2023-04-08T15:47:19.588Z,13.62
2023-04-08T15:49:45.900Z,13.58
2023-04-08T15:52:12.304Z,13.56
2023-04-08T15:54:38.688Z,13.28
2023-04-08T15:57:05.095Z,13.09
2023-04-08T15:59:31.880Z,13.09
2023-04-08T16:01:58.639Z,13.09
2023-04-08T16:04:25.219Z,13.00
2023-04-08T16:06:51.625Z,12.81
2023-04-08T16:09:18.039Z,12.74
2023-04-08T16:11:44.863Z,12.35
2023-04-08T16:14:11.272Z,12.37
2023-04-08T16:16:37.635Z,12.21
2023-04-08T16:19:04.744Z,12.16
2023-04-08T16:21:31.547Z,12.28
2023-04-08T16:23:57.944Z,12.17
2023-04-08T16:26:24.351Z,12.12
2023-04-08T16:28:51.215Z,12.10
2023-04-08T16:31:18.798Z,12.07
2023-04-08T16:33:46.331Z,12.05
2023-04-08T16:36:12.767Z,12.03
2023-04-08T16:38:39.133Z,12.02
2023-04-08T16:41:05.685Z,12.02
2023-04-08T16:43:32.074Z,11.91
2023-04-08T16:45:58.482Z,11.88
2023-04-08T16:48:24.831Z,11.78
2023-04-08T16:50:51.158Z,11.73
2023-04-08T16:53:17.570Z,11.70
2023-04-08T16:55:43.882Z,11.68
2023-04-08T16:58:10.264Z,11.60
2023-04-08T17:00:36.751Z,11.51
2023-04-08T17:03:03.282Z,11.49
2023-04-08T17:05:29.806Z,11.42
2023-04-08T17:07:56.499Z,11.40
2023-04-08T17:10:23.398Z,11.36
2023-04-08T17:12:49.734Z,11.32
2023-04-08T17:15:16.106Z,11.19
2023-04-08T17:17:42.462Z,11.09
2023-04-08T17:20:09.378Z,11.08
2023-04-08T17:22:35.775Z,11.09
2023-04-08T17:25:02.375Z,11.08
2023-04-08T17:27:28.748Z,11.05
2023-04-08T17:29:55.117Z,10.96
2023-04-08T17:32:21.643Z,10.99
2023-04-08T17:34:48.017Z,10.90
2023-04-08T17:37:14.447Z,10.92
2023-04-08T17:39:41.064Z,10.79
2023-04-08T17:42:08.381Z,10.79
2023-04-08T17:44:34.994Z,10.70
2023-04-08T17:47:01.347Z,10.71
2023-04-08T17:49:27.696Z,10.61
2023-04-08T17:51:54.134Z,10.66
2023-04-08T17:54:20.617Z,10.71
2023-04-08T17:56:49.036Z,10.64
2023-04-08T17:59:16.146Z,10.56
2023-04-08T18:01:42.603Z,10.53
2023-04-08T18:04:09.216Z,10.48
2023-04-08T18:06:35.744Z,10.49
2023-04-08T18:09:02.110Z,10.44
2023-04-08T18:11:28.461Z,10.45
2023-04-08T18:13:54.813Z,10.39
2023-04-08T18:16:22.014Z,10.30
2023-04-08T18:18:48.766Z,10.29
2023-04-08T18:21:16.104Z,10.11
2023-04-08T18:23:42.458Z,10.11
2023-04-08T18:26:08.765Z,10.13
2023-04-08T18:28:35.096Z,9.99
2023-04-08T18:31:01.532Z,9.97
2023-04-08T18:33:27.929Z,9.95
2023-04-08T18:35:54.291Z,9.86
2023-04-08T18:38:20.659Z,9.85
2023-04-08T18:40:47.068Z,9.84
2023-04-08T18:43:13.602Z,9.77
2023-04-08T18:45:40.641Z,9.72
2023-04-08T18:48:08.404Z,9.58
2023-04-08T18:50:34.833Z,9.54
2023-04-08T18:53:01.173Z,9.41
2023-04-08T18:55:27.546Z,9.35
2023-04-08T18:57:53.936Z,9.34
2023-04-08T19:00:20.389Z,9.25
2023-04-08T19:02:46.877Z,9.26
2023-04-08T19:05:13.343Z,9.20
2023-04-08T19:07:39.763Z,9.13
2023-04-08T19:10:06.838Z,9.15
2023-04-08T19:12:33.179Z,9.06
2023-04-08T19:14:59.587Z,9.11
2023-04-08T19:17:26.010Z,9.14
2023-04-08T19:19:52.342Z,9.19
2023-04-08T19:22:18.677Z,9.15
2023-04-08T19:24:45.008Z,9.19
2023-04-08T19:27:11.475Z,9.22
2023-04-08T19:29:37.824Z,9.16
2023-04-08T19:32:04.219Z,9.17
2023-04-08T19:34:30.744Z,9.19
2023-04-08T19:36:57.063Z,9.21
2023-04-08T19:39:25.951Z,9.19
2023-04-08T19:41:53.510Z,9.17
2023-04-08T19:44:19.873Z,9.20
2023-04-08T19:46:46.425Z,9.26
2023-04-08T19:49:12.949Z,9.28
2023-04-08T19:51:39.388Z,9.21
2023-04-08T19:54:05.755Z,9.20
2023-04-08T19:56:32.127Z,9.18
2023-04-08T19:58:58.535Z,9.26
2023-04-08T20:01:25.953Z,9.25
2023-04-08T20:03:52.619Z,9.23
2023-04-08T20:06:19.740Z,9.16
2023-04-08T20:08:46.371Z,9.16
2023-04-08T20:11:12.871Z,9.16
2023-04-08T20:13:39.273Z,9.09
2023-04-08T20:16:06.215Z,9.11
2023-04-08T20:18:32.950Z,9.11
2023-04-08T20:20:59.325Z,9.14
2023-04-08T20:23:25.936Z,9.14
2023-04-08T20:25:52.295Z,9.10
2023-04-08T20:28:19.474Z,9.10
2023-04-08T20:30:45.852Z,9.06
2023-04-08T20:33:12.253Z,9.02
2023-04-08T20:35:39.753Z,8.98
2023-04-08T20:38:06.212Z,9.02
2023-04-08T20:40:32.628Z,8.87
2023-04-08T20:42:59.058Z,8.95
2023-04-08T20:45:25.600Z,8.92
2023-04-08T20:47:52.053Z,8.84
2023-04-08T20:50:18.543Z,8.87
2023-04-08T20:52:44.875Z,8.90
2023-04-08T20:55:11.311Z,8.88
2023-04-08T20:57:37.646Z,8.86
2023-04-08T21:00:04.368Z,8.84
2023-04-08T21:02:30.987Z,8.87
2023-04-08T21:04:57.400Z,8.77
2023-04-08T21:07:26.785Z,8.79
2023-04-08T21:09:53.136Z,8.78
2023-04-08T21:12:19.488Z,8.83
2023-04-08T21:14:45.838Z,8.83
2023-04-08T21:17:12.186Z,8.87
2023-04-08T21:19:38.603Z,8.83
2023-04-08T21:22:05.010Z,8.91
2023-04-08T21:24:31.340Z,8.83
2023-04-08T21:26:57.747Z,8.85
2023-04-08T21:29:24.217Z,8.83
2023-04-08T21:31:50.603Z,8.89
2023-04-08T21:34:16.995Z,8.81
2023-04-08T21:36:43.334Z,8.82
2023-04-08T21:39:09.699Z,8.88
2023-04-08T21:41:36.042Z,8.87
2023-04-08T21:44:02.422Z,8.91
2023-04-08T21:46:28.832Z,8.82
2023-04-08T21:48:55.144Z,8.88
2023-04-08T21:51:21.521Z,8.91
2023-04-08T21:53:47.923Z,8.84
2023-04-08T21:56:14.282Z,8.90
2023-04-08T21:58:40.640Z,8.88
2023-04-08T22:01:07.076Z,8.91
2023-04-08T22:03:33.587Z,8.95
2023-04-08T22:06:00.103Z,8.98
2023-04-08T22:08:26.463Z,8.88
2023-04-08T22:10:52.802Z,8.88
2023-04-08T22:13:19.195Z,8.92
2023-04-08T22:15:45.530Z,8.93
2023-04-08T22:18:11.913Z,8.92
2023-04-08T22:20:38.271Z,8.89
2023-04-08T22:23:04.610Z,8.87
2023-04-08T22:25:30.961Z,8.91
2023-04-08T22:27:57.410Z,8.92
2023-04-08T22:30:23.796Z,8.81
2023-04-08T22:32:50.237Z,8.83
2023-04-08T22:35:16.642Z,8.82
2023-04-08T22:37:42.969Z,8.84
2023-04-08T22:40:09.556Z,8.90
2023-04-08T22:42:35.921Z,8.83
2023-04-08T22:45:02.270Z,8.84
2023-04-08T22:47:28.623Z,8.87
2023-04-08T22:49:54.986Z,8.85
2023-04-08T22:52:21.350Z,8.77
2023-04-08T22:54:47.646Z,8.85
2023-04-08T22:57:14.083Z,8.85
2023-04-08T22:59:40.459Z,8.83
2023-04-08T23:02:06.894Z,8.75
2023-04-08T23:04:33.330Z,8.75
2023-04-08T23:06:59.664Z,8.72
2023-04-08T23:09:25.951Z,8.77
2023-04-08T23:11:52.305Z,8.65
2023-04-08T23:14:18.659Z,8.56
2023-04-08T23:16:45.008Z,8.54
2023-04-08T23:19:11.335Z,8.61
2023-04-08T23:21:37.742Z,8.66
2023-04-08T23:24:04.352Z,8.67
2023-04-08T23:26:30.697Z,8.70
2023-04-08T23:28:57.059Z,8.73
2023-04-08T23:31:23.502Z,8.77
2023-04-08T23:33:49.930Z,8.74
2023-04-08T23:36:16.323Z,8.66
2023-04-08T23:38:42.738Z,8.55
2023-04-08T23:41:09.114Z,8.57
2023-04-08T23:43:35.487Z,8.59
2023-04-08T23:46:02.002Z,8.61
2023-04-08T23:48:28.390Z,8.59
2023-04-08T23:50:55.205Z,8.64
2023-04-08T23:53:22.079Z,8.68
2023-04-08T23:55:48.473Z,8.60
2023-04-08T23:58:14.847Z,8.63
